createdAt,value
2022-11-28T00:01:35.848Z,2.43
2022-11-28T00:04:03.560Z,2.38
2022-11-28T00:06:31.664Z,2.43
2022-11-28T00:09:00.387Z,2.36
2022-11-28T00:11:29.793Z,2.38
2022-11-28T00:13:57.455Z,2.41
2022-11-28T00:16:26.014Z,2.44
2022-11-28T00:18:56.218Z,2.47
2022-11-28T00:21:24.434Z,2.42
2022-11-28T00:23:52.985Z,2.35
2022-11-28T00:26:23.465Z,2.43
2022-11-28T00:28:53.876Z,2.47
2022-11-28T00:31:24.480Z,2.52
2022-11-28T00:33:52.928Z,2.52
2022-11-28T00:36:21.493Z,2.49
2022-11-28T00:38:50.457Z,2.52
2022-11-28T00:41:20.478Z,2.56
2022-11-28T00:43:49.656Z,2.58
2022-11-28T00:46:19.743Z,2.58
2022-11-28T00:48:48.483Z,2.56
2022-11-28T00:51:18.500Z,2.60
2022-11-28T00:53:48.687Z,2.61
2022-11-28T00:56:18.799Z,2.62
2022-11-28T00:58:49.717Z,2.63
2022-11-28T01:01:20.950Z,2.64
2022-11-28T01:03:50.954Z,2.67
2022-11-28T01:06:23.029Z,2.68
2022-11-28T01:08:51.861Z,2.69
2022-11-28T01:11:20.071Z,2.68
2022-11-28T01:13:48.888Z,2.67
2022-11-28T01:16:17.089Z,2.64
2022-11-28T01:18:47.128Z,2.68
2022-11-28T01:21:14.844Z,2.71
2022-11-28T01:23:42.880Z,2.73
2022-11-28T01:26:12.517Z,2.69
2022-11-28T01:28:40.988Z,2.69
2022-11-28T01:31:10.672Z,2.72
2022-11-28T01:33:38.383Z,2.71
2022-11-28T01:36:07.983Z,2.71
2022-11-28T01:38:36.515Z,2.70
2022-11-28T01:41:04.328Z,2.73
2022-11-28T01:43:32.852Z,2.76
2022-11-28T01:46:00.637Z,2.76
2022-11-28T01:48:32.054Z,2.66
2022-11-28T01:51:03.161Z,2.69
2022-11-28T01:53:35.960Z,2.63
2022-11-28T01:56:08.438Z,2.65
2022-11-28T01:58:40.368Z,2.65
2022-11-28T02:01:09.042Z,2.70
2022-11-28T02:03:44.280Z,2.71
2022-11-28T02:06:14.107Z,2.68
2022-11-28T02:08:43.560Z,2.64
2022-11-28T02:11:25.440Z,2.63
2022-11-28T02:14:07.064Z,2.70
2022-11-28T02:16:49.660Z,2.74
2022-11-28T02:19:44.694Z,2.74
2022-11-28T02:22:18.042Z,2.79
2022-11-28T02:24:58.532Z,2.75
2022-11-28T02:27:57.868Z,2.81
2022-11-28T02:30:33.075Z,2.73
2022-11-28T02:33:23.242Z,2.78
2022-11-28T02:35:59.561Z,2.77
2022-11-28T02:38:44.028Z,2.69
2022-11-28T02:41:20.605Z,2.60
2022-11-28T02:44:01.498Z,2.64
2022-11-28T02:46:39.137Z,2.68
2022-11-28T02:49:13.740Z,2.69
2022-11-28T02:51:44.628Z,2.62
2022-11-28T02:54:15.689Z,2.71
2022-11-28T02:56:48.290Z,2.67
2022-11-28T02:59:33.817Z,2.60
2022-11-28T03:02:02.641Z,2.64
2022-11-28T03:04:44.378Z,2.63
2022-11-28T03:07:23.945Z,2.68
2022-11-28T03:10:04.961Z,2.70
2022-11-28T03:12:48.119Z,2.71
2022-11-28T03:15:19.899Z,2.71
2022-11-28T03:17:56.121Z,2.72
2022-11-28T03:20:32.325Z,2.72
2022-11-28T03:23:12.234Z,2.67
2022-11-28T03:25:51.201Z,2.63
2022-11-28T03:28:24.534Z,2.66
2022-11-28T03:30:54.985Z,2.71
2022-11-28T03:33:26.145Z,1.97
2022-11-28T03:36:00.246Z,1.77
2022-11-28T03:38:32.762Z,1.62
2022-11-28T03:41:08.176Z,1.41
2022-11-28T03:43:42.183Z,1.51
2022-11-28T03:46:14.673Z,1.64
2022-11-28T03:48:46.257Z,1.84
2022-11-28T03:51:18.118Z,1.77
2022-11-28T03:53:52.294Z,2.14
2022-11-28T03:56:25.701Z,2.20
2022-11-28T03:58:57.610Z,2.38
2022-11-28T04:01:33.084Z,2.47
2022-11-28T04:04:10.835Z,2.59
2022-11-28T04:06:52.189Z,2.67
2022-11-28T04:09:26.084Z,2.74
2022-11-28T04:11:57.776Z,2.69
2022-11-28T04:14:33.284Z,2.76
2022-11-28T04:17:06.779Z,2.69
2022-11-28T04:19:39.845Z,2.71
2022-11-28T04:22:17.172Z,2.76
2022-11-28T04:24:49.874Z,2.85
2022-11-28T04:27:24.132Z,2.83
2022-11-28T04:29:58.048Z,2.94
2022-11-28T04:32:28.274Z,2.87
2022-11-28T04:35:02.472Z,2.88
2022-11-28T04:37:33.492Z,2.85
2022-11-28T04:40:02.011Z,2.87
2022-11-28T04:42:36.349Z,2.86
2022-11-28T04:45:10.821Z,2.85
2022-11-28T04:47:38.758Z,2.96
2022-11-28T04:50:08.062Z,3.02
2022-11-28T04:52:45.344Z,3.01
2022-11-28T04:55:19.464Z,3.01
2022-11-28T04:57:56.904Z,3.01
2022-11-28T05:00:25.142Z,3.02
2022-11-28T05:02:55.426Z,3.05
2022-11-28T05:05:24.896Z,3.02
2022-11-28T05:07:54.612Z,3.01
2022-11-28T05:10:22.512Z,3.00
2022-11-28T05:12:50.939Z,3.00
2022-11-28T05:15:19.243Z,2.90
2022-11-28T05:17:48.142Z,2.91
2022-11-28T05:20:16.863Z,2.94
2022-11-28T05:22:44.552Z,2.96
2022-11-28T05:25:13.617Z,2.97
2022-11-28T05:27:41.290Z,3.04
2022-11-28T05:30:11.004Z,3.06
2022-11-28T05:32:38.792Z,3.03
2022-11-28T05:35:06.886Z,2.98
2022-11-28T05:37:34.863Z,3.03
2022-11-28T05:40:02.665Z,2.99
2022-11-28T05:42:35.575Z,2.95
2022-11-28T05:45:03.336Z,2.91
2022-11-28T05:47:32.189Z,2.91
2022-11-28T05:50:00.126Z,2.94
2022-11-28T05:52:32.161Z,2.95
2022-11-28T05:55:01.448Z,3.03
2022-11-28T05:57:31.943Z,3.01
2022-11-28T06:00:01.022Z,2.51
2022-11-28T06:02:28.752Z,2.79
2022-11-28T06:04:56.506Z,2.81
2022-11-28T06:07:24.410Z,2.91
2022-11-28T06:09:52.110Z,2.89
2022-11-28T06:12:20.074Z,2.85
2022-11-28T06:14:47.761Z,2.90
2022-11-28T06:17:17.425Z,2.55
2022-11-28T06:19:45.291Z,2.84
2022-11-28T06:22:13.385Z,2.60
2022-11-28T06:24:41.068Z,2.85
2022-11-28T06:27:09.460Z,2.73
2022-11-28T06:29:37.106Z,2.82
2022-11-28T06:32:04.899Z,2.78
2022-11-28T06:34:34.451Z,2.92
2022-11-28T06:37:02.081Z,2.96
2022-11-28T06:39:30.136Z,2.52
2022-11-28T06:41:58.061Z,2.75
2022-11-28T06:44:26.672Z,2.85
2022-11-28T06:46:55.124Z,2.90
2022-11-28T06:49:23.438Z,2.98
2022-11-28T06:51:52.450Z,2.99
2022-11-28T06:54:20.423Z,3.04
2022-11-28T06:56:48.126Z,3.08
2022-11-28T06:59:16.313Z,3.05
2022-11-28T07:01:44.067Z,3.10
2022-11-28T07:04:11.792Z,3.14
2022-11-28T07:06:39.438Z,3.14
2022-11-28T07:09:08.784Z,3.22
2022-11-28T07:11:36.454Z,3.25
2022-11-28T07:14:04.617Z,3.28
2022-11-28T07:16:34.193Z,3.25
2022-11-28T07:19:02.336Z,3.29
2022-11-28T07:21:30.825Z,3.30
2022-11-28T07:24:00.006Z,3.30
2022-11-28T07:26:28.985Z,3.33
2022-11-28T07:29:00.113Z,3.33
2022-11-28T07:31:32.016Z,3.36
2022-11-28T07:34:02.147Z,3.40
2022-11-28T07:36:30.338Z,3.45
2022-11-28T07:39:00.455Z,3.46
2022-11-28T07:41:30.003Z,3.52
2022-11-28T07:43:59.777Z,3.54
2022-11-28T07:46:29.207Z,3.55
2022-11-28T07:48:57.979Z,3.55
2022-11-28T07:51:27.952Z,3.54
2022-11-28T07:53:56.401Z,3.58
2022-11-28T07:56:25.660Z,3.60
2022-11-28T07:58:57.925Z,3.63
2022-11-28T08:01:31.769Z,3.65
2022-11-28T08:04:01.350Z,3.65
2022-11-28T08:06:31.266Z,3.69
2022-11-28T08:09:01.831Z,3.73
2022-11-28T08:11:30.633Z,3.78
2022-11-28T08:13:59.789Z,3.79
2022-11-28T08:16:29.814Z,3.84
2022-11-28T08:18:57.757Z,3.89
2022-11-28T08:21:27.436Z,3.91
2022-11-28T08:23:57.384Z,3.95
2022-11-28T08:26:30.351Z,3.98
2022-11-28T08:29:00.933Z,4.05
2022-11-28T08:31:30.694Z,4.11
2022-11-28T08:34:01.584Z,4.18
2022-11-28T08:36:29.749Z,4.19
2022-11-28T08:39:16.696Z,4.19
2022-11-28T08:41:47.801Z,4.24
2022-11-28T08:44:17.626Z,4.29
2022-11-28T08:46:45.299Z,4.31
2022-11-28T08:49:13.612Z,4.40
2022-11-28T08:51:41.302Z,4.43
2022-11-28T08:54:09.595Z,4.42
2022-11-28T08:56:37.265Z,4.53
2022-11-28T08:59:06.965Z,4.54
2022-11-28T09:01:36.412Z,4.63
2022-11-28T09:04:05.384Z,4.67
2022-11-28T09:06:33.521Z,4.73
2022-11-28T09:09:01.938Z,4.84
2022-11-28T09:11:30.222Z,4.89
2022-11-28T09:13:57.989Z,4.96
2022-11-28T09:16:26.434Z,5.04
2022-11-28T09:18:57.397Z,5.12
2022-11-28T09:21:25.040Z,5.18
2022-11-28T09:23:55.330Z,5.27
2022-11-28T09:26:26.248Z,5.34
2022-11-28T09:28:54.872Z,5.37
2022-11-28T09:31:23.789Z,5.51
2022-11-28T09:33:51.603Z,5.51
2022-11-28T09:36:22.644Z,5.53
2022-11-28T09:38:50.498Z,5.51
2022-11-28T09:41:39.087Z,5.51
2022-11-28T09:44:14.885Z,5.66
2022-11-28T09:46:43.813Z,5.46
2022-11-28T09:49:23.084Z,5.61
2022-11-28T09:51:56.165Z,5.60
2022-11-28T09:54:33.289Z,5.71
2022-11-28T09:57:03.356Z,5.56
2022-11-28T09:59:32.728Z,5.71
2022-11-28T10:02:14.053Z,5.62
2022-11-28T10:04:46.396Z,5.79
2022-11-28T10:07:25.184Z,5.90
2022-11-28T10:10:01.172Z,5.85
2022-11-28T10:12:42.751Z,5.57
2022-11-28T10:15:38.413Z,5.86
2022-11-28T10:18:23.416Z,5.95
2022-11-28T10:20:55.816Z,6.12
2022-11-28T10:23:30.238Z,6.29
2022-11-28T10:26:01.624Z,6.32
2022-11-28T10:28:33.489Z,6.41
2022-11-28T10:31:07.220Z,6.51
2022-11-28T10:33:41.012Z,6.59
2022-11-28T10:36:18.339Z,6.76
2022-11-28T10:38:47.311Z,6.83
2022-11-28T10:41:19.956Z,6.92
2022-11-28T10:43:54.971Z,6.99
2022-11-28T10:46:43.195Z,7.04
2022-11-28T10:49:24.117Z,7.09
2022-11-28T10:52:02.775Z,7.17
2022-11-28T10:54:48.122Z,7.22
2022-11-28T10:57:22.588Z,7.31
2022-11-28T11:00:00.450Z,7.45
2022-11-28T11:02:38.491Z,7.57
2022-11-28T11:05:07.210Z,7.70
2022-11-28T11:07:35.819Z,7.77
2022-11-28T11:10:15.274Z,7.81
2022-11-28T11:12:45.193Z,7.83
2022-11-28T11:15:22.877Z,7.87
2022-11-28T11:17:51.815Z,7.90
2022-11-28T11:20:33.621Z,7.92
2022-11-28T11:23:03.313Z,7.89
2022-11-28T11:25:33.256Z,7.85
2022-11-28T11:28:04.909Z,7.84
2022-11-28T11:30:35.866Z,7.86
2022-11-28T11:33:07.489Z,7.83
2022-11-28T11:35:37.561Z,7.82
2022-11-28T11:38:18.537Z,7.84
2022-11-28T11:40:48.017Z,7.85
2022-11-28T11:43:28.135Z,7.86
2022-11-28T11:46:07.293Z,7.77
2022-11-28T11:48:37.769Z,7.82
2022-11-28T11:51:06.137Z,7.83
2022-11-28T11:53:34.032Z,7.86
2022-11-28T11:56:04.515Z,7.90
2022-11-28T11:58:40.992Z,7.92
2022-11-28T12:01:11.898Z,7.90
2022-11-28T12:03:44.012Z,7.88
2022-11-28T12:06:17.001Z,7.87
2022-11-28T12:08:51.190Z,7.86
2022-11-28T12:11:26.236Z,7.86
2022-11-28T12:13:54.635Z,7.85
2022-11-28T12:16:41.459Z,7.89
2022-11-28T12:19:22.796Z,7.92
2022-11-28T12:22:04.182Z,7.94
2022-11-28T12:24:40.235Z,7.94
2022-11-28T12:27:22.057Z,7.96
2022-11-28T12:30:02.628Z,7.98
2022-11-28T12:32:43.576Z,7.90
2022-11-28T12:35:25.844Z,7.91
2022-11-28T12:38:10.849Z,7.95
2022-11-28T12:40:51.887Z,7.93
2022-11-28T12:43:31.505Z,7.91
2022-11-28T12:46:06.643Z,7.90
2022-11-28T12:48:51.658Z,7.90
2022-11-28T12:51:32.384Z,7.93
2022-11-28T12:54:15.858Z,7.94
2022-11-28T12:56:52.767Z,7.98
2022-11-28T12:59:28.351Z,8.02
2022-11-28T13:02:09.419Z,8.05
2022-11-28T13:04:58.280Z,8.06
2022-11-28T13:07:40.963Z,8.08
2022-11-28T13:10:15.136Z,8.06
2022-11-28T13:12:51.893Z,8.09
2022-11-28T13:15:37.988Z,8.12
2022-11-28T13:18:19.062Z,8.15
2022-11-28T13:20:54.065Z,8.15
2022-11-28T13:23:28.641Z,8.15
2022-11-28T13:26:03.625Z,8.15
2022-11-28T13:28:38.645Z,8.16
2022-11-28T13:31:13.952Z,8.16
2022-11-28T13:33:51.566Z,8.18
2022-11-28T13:39:28.449Z,8.17
2022-11-28T13:42:43.948Z,8.15
2022-11-28T13:45:01.332Z,8.16
2022-11-28T13:47:35.033Z,8.17
2022-11-28T13:50:39.490Z,8.13
2022-11-28T13:53:31.448Z,8.17
2022-11-28T13:56:21.876Z,8.13
2022-11-28T13:58:53.939Z,8.12
2022-11-28T14:01:23.689Z,8.15
2022-11-28T14:04:02.769Z,8.13
2022-11-28T14:06:32.467Z,8.08
2022-11-28T14:09:07.370Z,8.11
2022-11-28T14:12:00.362Z,8.13
2022-11-28T14:14:57.541Z,8.08
2022-11-28T14:17:41.953Z,8.09
2022-11-28T14:20:26.068Z,8.08
2022-11-28T14:23:14.141Z,8.03
2022-11-28T14:25:44.898Z,8.03
2022-11-28T14:28:23.182Z,8.05
2022-11-28T14:30:52.423Z,8.04
2022-11-28T14:33:24.449Z,8.05
2022-11-28T14:36:24.053Z,8.09
2022-11-28T14:39:27.743Z,8.09
2022-11-28T14:45:43.374Z,8.01
2022-11-28T14:48:28.404Z,7.97
2022-11-28T14:51:01.853Z,7.99
2022-11-28T14:53:49.872Z,8.01
2022-11-28T14:56:26.004Z,7.92
2022-11-28T14:58:58.870Z,7.81
2022-11-28T15:01:41.725Z,7.76
2022-11-28T15:04:40.110Z,7.72
2022-11-28T15:07:22.546Z,7.64
2022-11-28T15:10:07.537Z,7.62
2022-11-28T15:12:47.407Z,7.56
2022-11-28T15:15:17.061Z,7.49
2022-11-28T15:17:51.274Z,7.48
2022-11-28T15:20:25.442Z,7.46
2022-11-28T15:22:53.501Z,7.44
2022-11-28T15:25:25.249Z,7.45
2022-11-28T15:27:55.292Z,7.41
2022-11-28T15:30:26.965Z,7.38
2022-11-28T15:32:58.450Z,7.33
2022-11-28T15:35:27.521Z,7.30
2022-11-28T15:37:58.362Z,7.25
2022-11-28T15:40:32.543Z,7.21
2022-11-28T15:43:02.322Z,7.23
2022-11-28T15:45:35.656Z,7.20
2022-11-28T15:48:04.544Z,7.17
2022-11-28T15:50:35.096Z,7.16
2022-11-28T15:53:05.475Z,7.16
2022-11-28T15:55:36.252Z,7.11
2022-11-28T15:58:12.080Z,7.09
2022-11-28T16:00:43.115Z,7.07
2022-11-28T16:03:16.888Z,7.06
2022-11-28T16:05:47.152Z,7.04
2022-11-28T16:08:28.330Z,7.03
2022-11-28T16:10:58.873Z,7.00
2022-11-28T16:13:26.764Z,6.98
2022-11-28T16:15:57.544Z,6.97
2022-11-28T16:18:28.243Z,6.96
2022-11-28T16:20:57.259Z,6.94
2022-11-28T16:23:29.402Z,6.96
2022-11-28T16:26:04.073Z,6.95
2022-11-28T16:28:34.280Z,6.92
2022-11-28T16:31:02.756Z,6.89
2022-11-28T16:33:39.117Z,6.88
2022-11-28T16:36:34.467Z,6.80
2022-11-28T16:39:09.237Z,6.79
2022-11-28T16:41:40.813Z,6.78
2022-11-28T16:44:13.603Z,6.80
2022-11-28T16:46:49.367Z,6.77
2022-11-28T16:49:34.484Z,6.80
2022-11-28T16:52:51.525Z,6.70
2022-11-28T16:55:41.936Z,6.67
2022-11-28T16:58:14.345Z,6.63
2022-11-28T17:00:47.637Z,6.62
2022-11-28T17:03:48.477Z,6.47
2022-11-28T17:06:22.399Z,6.48
2022-11-28T17:08:50.460Z,6.52
2022-11-28T17:11:21.096Z,6.47
2022-11-28T17:13:51.006Z,6.48
2022-11-28T17:16:21.855Z,6.38
2022-11-28T17:18:50.378Z,6.37
2022-11-28T17:21:23.093Z,6.33
2022-11-28T17:23:51.116Z,6.28
2022-11-28T17:26:18.773Z,6.27
2022-11-28T17:28:47.008Z,6.25
2022-11-28T17:31:16.064Z,6.25
2022-11-28T17:33:44.994Z,6.22
2022-11-28T17:36:13.340Z,6.17
2022-11-28T17:38:41.377Z,6.20
2022-11-28T17:41:13.399Z,6.19
2022-11-28T17:43:41.430Z,6.15
2022-11-28T17:46:10.047Z,6.13
2022-11-28T17:48:39.724Z,6.14
2022-11-28T17:51:07.474Z,6.15
2022-11-28T17:53:35.921Z,6.18
2022-11-28T17:56:04.442Z,6.17
2022-11-28T17:58:32.823Z,6.17
2022-11-28T18:01:01.162Z,6.19
2022-11-28T18:03:30.199Z,6.21
2022-11-28T18:05:59.393Z,6.21
2022-11-28T18:08:27.365Z,6.22
2022-11-28T18:11:04.629Z,6.25
2022-11-28T18:13:33.406Z,6.21
2022-11-28T18:16:01.470Z,6.19
2022-11-28T18:18:30.370Z,6.15
2022-11-28T18:21:00.234Z,6.12
2022-11-28T18:23:28.421Z,6.11
2022-11-28T18:25:56.063Z,5.87
2022-11-28T18:28:23.757Z,5.84
2022-11-28T18:30:51.525Z,5.84
2022-11-28T18:33:20.637Z,5.79
2022-11-28T18:35:48.345Z,5.80
2022-11-28T18:38:18.124Z,5.80
2022-11-28T18:40:45.833Z,5.79
2022-11-28T18:43:13.944Z,5.81
2022-11-28T18:45:41.961Z,5.82
2022-11-28T18:48:10.671Z,5.83
2022-11-28T18:50:39.962Z,5.79
2022-11-28T18:53:08.412Z,5.79
2022-11-28T18:55:37.774Z,5.80
2022-11-28T18:58:06.805Z,5.83
2022-11-28T19:00:34.549Z,5.83
2022-11-28T19:03:03.213Z,5.59
2022-11-28T19:05:35.045Z,5.70
2022-11-28T19:08:06.239Z,5.72
2022-11-28T19:10:39.728Z,5.76
2022-11-28T19:13:07.753Z,5.74
2022-11-28T19:15:39.157Z,5.67
2022-11-28T19:18:07.173Z,5.72
2022-11-28T19:20:35.638Z,5.74
2022-11-28T19:23:03.716Z,5.76
2022-11-28T19:25:32.430Z,5.78
2022-11-28T19:28:01.823Z,5.80
2022-11-28T19:30:29.568Z,5.79
2022-11-28T19:32:58.192Z,5.83
2022-11-28T19:35:25.915Z,5.84
2022-11-28T19:37:54.749Z,5.86
2022-11-28T19:40:22.756Z,5.89
2022-11-28T19:42:51.020Z,5.86
2022-11-28T19:45:24.409Z,5.89
2022-11-28T19:47:55.757Z,5.88
2022-11-28T19:50:25.603Z,5.94
2022-11-28T19:52:56.532Z,5.87
2022-11-28T19:55:24.351Z,5.78
2022-11-28T19:57:52.800Z,5.72
2022-11-28T20:00:22.819Z,5.74
2022-11-28T20:02:50.520Z,5.65
2022-11-28T20:05:19.107Z,5.67
2022-11-28T20:07:47.150Z,5.67
2022-11-28T20:10:14.905Z,5.69
2022-11-28T20:12:43.057Z,5.72
2022-11-28T20:15:16.679Z,5.75
2022-11-28T20:17:47.653Z,5.77
2022-11-28T20:20:15.822Z,5.73
2022-11-28T20:22:43.545Z,5.76
2022-11-28T20:25:16.479Z,5.79
2022-11-28T20:27:46.909Z,5.86
2022-11-28T20:30:15.703Z,5.78
2022-11-28T20:32:43.914Z,5.78
2022-11-28T20:35:13.224Z,5.84
2022-11-28T20:37:40.957Z,5.83
2022-11-28T20:40:10.300Z,5.78
2022-11-28T20:42:39.987Z,5.84
2022-11-28T20:45:08.994Z,5.87
2022-11-28T20:47:36.664Z,5.85
2022-11-28T20:50:05.196Z,5.85
2022-11-28T20:52:34.226Z,5.71
2022-11-28T20:55:02.607Z,5.73
2022-11-28T20:57:30.267Z,5.72
2022-11-28T20:59:58.243Z,5.69
2022-11-28T21:02:25.991Z,5.70
2022-11-28T21:04:53.996Z,5.77
2022-11-28T21:07:22.793Z,5.73
2022-11-28T21:09:54.005Z,5.64
2022-11-28T21:12:21.713Z,5.53
2022-11-28T21:14:49.831Z,5.61
2022-11-28T21:17:17.509Z,5.61
2022-11-28T21:19:45.793Z,5.62
2022-11-28T21:22:13.707Z,5.62
2022-11-28T21:24:41.494Z,5.65
2022-11-28T21:27:10.866Z,5.71
2022-11-28T21:29:38.524Z,5.69
2022-11-28T21:32:06.340Z,5.74
2022-11-28T21:34:34.749Z,5.77
2022-11-28T21:37:02.808Z,5.83
2022-11-28T21:39:31.076Z,5.83
2022-11-28T21:41:58.742Z,5.84
2022-11-28T21:44:27.939Z,5.85
2022-11-28T21:46:55.570Z,5.87
2022-11-28T21:49:23.614Z,5.88
2022-11-28T21:51:53.910Z,5.88
2022-11-28T21:54:24.555Z,5.92
2022-11-28T21:56:53.148Z,5.93
2022-11-28T21:59:22.745Z,5.94
2022-11-28T22:01:52.367Z,5.96
2022-11-28T22:04:21.885Z,5.94
2022-11-28T22:06:50.774Z,5.88
2022-11-28T22:09:19.089Z,5.91
2022-11-28T22:11:46.773Z,5.95
2022-11-28T22:14:16.337Z,5.97
2022-11-28T22:16:44.000Z,5.98
2022-11-28T22:19:14.327Z,6.03
2022-11-28T22:21:53.139Z,6.04
2022-11-28T22:24:23.469Z,6.07
2022-11-28T22:26:51.323Z,6.07
2022-11-28T22:29:19.835Z,6.10
2022-11-28T22:31:49.219Z,6.11
2022-11-28T22:34:20.135Z,6.16
2022-11-28T22:36:47.821Z,6.18
2022-11-28T22:39:15.995Z,6.18
2022-11-28T22:41:43.700Z,6.13
2022-11-28T22:44:12.195Z,6.12
2022-11-28T22:46:40.006Z,6.09
2022-11-28T22:49:10.944Z,6.07
2022-11-28T22:51:40.940Z,6.05
2022-11-28T22:54:12.415Z,6.01
2022-11-28T22:56:41.008Z,6.02
2022-11-28T22:59:13.152Z,6.04
2022-11-28T23:01:41.840Z,6.20
2022-11-28T23:04:09.907Z,6.32
2022-11-28T23:06:40.190Z,6.43
2022-11-28T23:09:09.569Z,6.52
2022-11-28T23:11:40.220Z,6.61
2022-11-28T23:14:08.920Z,6.70
2022-11-28T23:16:39.807Z,6.74
2022-11-28T23:19:11.577Z,6.79
2022-11-28T23:21:43.518Z,6.82
2022-11-28T23:24:15.564Z,6.87
2022-11-28T23:26:44.807Z,6.85
2022-11-28T23:29:14.304Z,6.83
2022-11-28T23:31:43.841Z,6.84
2022-11-28T23:34:12.624Z,6.81
2022-11-28T23:36:43.973Z,6.80
2022-11-28T23:39:13.618Z,6.86
2022-11-28T23:41:42.316Z,6.88
2022-11-28T23:44:11.173Z,6.87
2022-11-28T23:46:39.337Z,6.87
2022-11-28T23:49:07.612Z,6.91
2022-11-28T23:51:37.093Z,6.92
2022-11-28T23:54:06.389Z,6.93
2022-11-28T23:56:36.463Z,6.95
2022-11-28T23:59:06.622Z,6.99
